Time;durP1;ratioP1;P1;durP2;ratioP2;P2;SDS_P1;SDS_P2;PMS_P1;PMS_P2;Temp;Humidity;BMP_temperature;BMP_pressure;BME280_temperature;BME280_humidity;BME280_pressure;Samples;Min_cycle;Max_cycle;Signal;HPM_P1;HPM_P2
2024/01/05 00:02:18;;;;;;;7.82;6.10;;;;;;;;;;5074856;28;20040;-77
2024/01/05 00:04:44;;;;;;;9.13;6.50;;;;;;;;;;5089774;28;20092;-78
2024/01/05 00:07:11;;;;;;;9.02;7.05;;;;;;;;;;5097954;27;20130;-77
2024/01/05 00:09:37;;;;;;;8.93;6.10;;;;;;;;;;5073737;28;20403;-77
2024/01/05 00:12:03;;;;;;;8.68;6.90;;;;;;;;;;5061562;28;20123;-77
2024/01/05 00:14:30;;;;;;;8.57;6.70;;;;;;;;;;5087832;28;20473;-78
2024/01/05 00:16:59;;;;;;;9.48;6.85;;;;;;;;;;5085990;28;20487;-79
2024/01/05 00:19:25;;;;;;;11.35;8.32;;;;;;;;;;5090052;28;20494;-79
2024/01/05 00:21:51;;;;;;;9.88;7.95;;;;;;;;;;5056856;28;20032;-78
2024/01/05 00:24:17;;;;;;;10.63;7.60;;;;;;;;;;5086937;28;20048;-78
2024/01/05 00:26:43;;;;;;;11.38;7.45;;;;;;;;;;5055649;28;20119;-77
2024/01/05 00:29:10;;;;;;;9.05;7.50;;;;;;;;;;5058199;28;20119;-78
2024/01/05 00:31:36;;;;;;;8.85;7.20;;;;;;;;;;5065809;28;20036;-79
2024/01/05 00:34:02;;;;;;;13.93;8.30;;;;;;;;;;5082945;28;20040;-78
2024/01/05 00:36:28;;;;;;;12.13;8.07;;;;;;;;;;5071761;28;20043;-78
2024/01/05 00:38:54;;;;;;;13.43;9.55;;;;;;;;;;5082139;28;20043;-85
2024/01/05 00:41:20;;;;;;;12.88;9.07;;;;;;;;;;5066146;28;20046;-85
2024/01/05 00:43:46;;;;;;;13.77;9.57;;;;;;;;;;5052379;28;20042;-85
2024/01/05 00:46:14;;;;;;;12.10;8.38;;;;;;;;;;5066804;28;20099;-84
2024/01/05 00:48:40;;;;;;;14.48;8.65;;;;;;;;;;5070724;28;20051;-84
2024/01/05 00:51:07;;;;;;;13.73;9.57;;;;;;;;;;5062448;28;20074;-85
2024/01/05 00:53:33;;;;;;;12.45;8.75;;;;;;;;;;5075856;28;20028;-85
2024/01/05 00:55:59;;;;;;;16.05;9.48;;;;;;;;;;5071994;28;20072;-86
2024/01/05 00:58:25;;;;;;;14.82;8.80;;;;;;;;;;5080005;28;20050;-85
2024/01/05 01:00:51;;;;;;;14.32;9.55;;;;;;;;;;5086944;28;20035;-83
2024/01/05 01:03:17;;;;;;;14.13;9.10;;;;;;;;;;5059166;28;20487;-85
2024/01/05 01:05:44;;;;;;;14.60;10.20;;;;;;;;;;5065817;28;20048;-85
2024/01/05 01:08:12;;;;;;;15.93;9.75;;;;;;;;;;5074553;28;20097;-83
2024/01/05 01:10:39;;;;;;;15.50;10.50;;;;;;;;;;5087116;28;20042;-86
2024/01/05 01:13:05;;;;;;;14.70;10.95;;;;;;;;;;5082979;28;20654;-81
2024/01/05 01:15:31;;;;;;;18.60;9.88;;;;;;;;;;5078918;28;20070;-85
2024/01/05 01:17:57;;;;;;;16.27;10.77;;;;;;;;;;5073105;28;20082;-86
2024/01/05 01:20:23;;;;;;;14.65;11.27;;;;;;;;;;5081117;28;20048;-86
2024/01/05 01:22:49;;;;;;;24.05;11.73;;;;;;;;;;5065169;28;20173;-85
2024/01/05 01:25:15;;;;;;;16.13;10.38;;;;;;;;;;5062857;28;20048;-84
2024/01/05 01:27:42;;;;;;;18.65;10.68;;;;;;;;;;5078074;28;20047;-85
2024/01/05 01:30:08;;;;;;;16.90;11.57;;;;;;;;;;5068250;28;20045;-79
2024/01/05 01:32:36;;;;;;;18.83;11.07;;;;;;;;;;5093856;28;20036;-86
2024/01/05 01:35:03;;;;;;;20.98;11.05;;;;;;;;;;5055431;28;20076;-86
2024/01/05 01:37:29;;;;;;;18.67;10.52;;;;;;;;;;5075019;28;20047;-84
2024/01/05 01:39:55;;;;;;;16.25;11.38;;;;;;;;;;5067315;28;20513;-85
2024/01/05 01:42:21;;;;;;;15.95;11.45;;;;;;;;;;5049625;28;20667;-83
2024/01/05 01:44:48;;;;;;;18.13;10.55;;;;;;;;;;5082788;28;20051;-86
2024/01/05 01:47:14;;;;;;;18.75;11.57;;;;;;;;;;5085346;28;20037;-85
2024/01/05 01:49:40;;;;;;;17.42;10.80;;;;;;;;;;5087006;28;20143;-77
2024/01/05 01:52:07;;;;;;;17.45;10.93;;;;;;;;;;5094174;28;20413;-78
2024/01/05 01:54:33;;;;;;;18.42;11.07;;;;;;;;;;5078269;28;20043;-76
2024/01/05 01:57:00;;;;;;;19.00;12.43;;;;;;;;;;5086470;28;20040;-77
2024/01/05 01:59:26;;;;;;;18.27;11.52;;;;;;;;;;5067539;28;20062;-77
2024/01/05 02:01:52;;;;;;;17.35;11.25;;;;;;;;;;5083198;28;20044;-78
2024/01/05 02:04:20;;;;;;;19.92;12.38;;;;;;;;;;5083992;28;20044;-77
2024/01/05 02:06:46;;;;;;;17.85;11.65;;;;;;;;;;5066708;28;20382;-76
2024/01/05 02:09:12;;;;;;;18.50;12.63;;;;;;;;;;5089335;28;20047;-76
2024/01/05 02:11:39;;;;;;;17.75;10.65;;;;;;;;;;5086754;28;20718;-76
2024/01/05 02:14:05;;;;;;;16.55;11.48;;;;;;;;;;5067509;28;20040;-77
2024/01/05 02:16:31;;;;;;;18.60;12.32;;;;;;;;;;5067330;28;20131;-76
2024/01/05 02:18:57;;;;;;;18.25;11.60;;;;;;;;;;5082748;28;20141;-76
2024/01/05 02:21:24;;;;;;;17.90;11.63;;;;;;;;;;5083021;28;20054;-80
2024/01/05 02:23:50;;;;;;;17.77;12.65;;;;;;;;;;5080810;28;20399;-76
2024/01/05 02:26:16;;;;;;;19.98;10.68;;;;;;;;;;5087160;28;20064;-75
2024/01/05 02:28:42;;;;;;;18.77;12.63;;;;;;;;;;5069101;28;20139;-79
2024/01/05 02:31:08;;;;;;;21.63;12.18;;;;;;;;;;5080801;28;20047;-79
2024/01/05 02:33:34;;;;;;;19.33;11.00;;;;;;;;;;5064151;28;20123;-77
2024/01/05 02:36:01;;;;;;;20.25;10.60;;;;;;;;;;5071174;28;20036;-76
2024/01/05 02:38:27;;;;;;;18.77;10.27;;;;;;;;;;5082460;28;20105;-78
2024/01/05 02:40:55;;;;;;;17.35;10.60;;;;;;;;;;5072211;28;20089;-78
2024/01/05 02:43:21;;;;;;;16.45;9.93;;;;;;;;;;5065827;28;20056;-76
2024/01/05 02:45:47;;;;;;;18.58;11.45;;;;;;;;;;5083492;28;20040;-76
2024/01/05 02:48:14;;;;;;;17.73;10.45;;;;;;;;;;5081216;28;20036;-76
2024/01/05 02:50:40;;;;;;;22.48;12.32;;;;;;;;;;5082571;28;20057;-79
2024/01/05 02:53:06;;;;;;;21.15;9.82;;;;;;;;;;5056449;28;20863;-76
2024/01/05 02:55:32;;;;;;;21.27;11.52;;;;;;;;;;5081908;28;20032;-77
2024/01/05 02:57:58;;;;;;;20.42;12.40;;;;;;;;;;5082153;28;20109;-77
2024/01/05 03:00:24;;;;;;;23.33;11.60;;;;;;;;;;5073508;28;20588;-79
2024/01/05 03:02:50;;;;;;;21.30;13.20;;;;;;;;;;5056831;28;20040;-78
2024/01/05 03:05:16;;;;;;;23.27;13.73;;;;;;;;;;5066826;28;20067;-77
2024/01/05 03:07:43;;;;;;;23.65;13.52;;;;;;;;;;5084440;28;20132;-77
2024/01/05 03:10:09;;;;;;;25.77;12.30;;;;;;;;;;5066883;28;20040;-75
2024/01/05 03:12:36;;;;;;;23.30;13.65;;;;;;;;;;5087786;28;20040;-76
2024/01/05 03:15:03;;;;;;;23.55;13.18;;;;;;;;;;5071504;28;20040;-77
2024/01/05 03:17:29;;;;;;;25.23;13.48;;;;;;;;;;5077825;28;20129;-77
2024/01/05 03:19:55;;;;;;;27.10;12.82;;;;;;;;;;5078091;28;20044;-77
2024/01/05 03:22:21;;;;;;;26.50;14.68;;;;;;;;;;5077952;28;20032;-76
2024/01/05 03:24:47;;;;;;;29.98;11.90;;;;;;;;;;5064104;28;20047;-76
2024/01/05 03:27:14;;;;;;;26.42;14.25;;;;;;;;;;5064680;28;20048;-76
2024/01/05 03:29:40;;;;;;;26.90;14.70;;;;;;;;;;5086656;28;20051;-77
2024/01/05 03:32:09;;;;;;;24.83;14.52;;;;;;;;;;5074558;28;20086;-76
2024/01/05 03:34:35;;;;;;;26.63;14.63;;;;;;;;;;5059953;28;20534;-79
2024/01/05 03:37:02;;;;;;;28.30;13.73;;;;;;;;;;5065823;28;20052;-76
2024/01/05 03:39:28;;;;;;;25.75;12.68;;;;;;;;;;5052332;28;20301;-76
2024/01/05 03:41:54;;;;;;;27.25;14.07;;;;;;;;;;5061287;28;20449;-75
2024/01/05 03:44:22;;;;;;;25.45;13.40;;;;;;;;;;5072859;28;20044;-77
2024/01/05 03:46:49;;;;;;;24.48;12.85;;;;;;;;;;5084133;28;20051;-76
2024/01/05 03:49:15;;;;;;;27.35;13.32;;;;;;;;;;5082540;28;20063;-76
2024/01/05 03:51:42;;;;;;;28.55;13.80;;;;;;;;;;5068676;28;20462;-76
2024/01/05 03:54:08;;;;;;;30.73;13.80;;;;;;;;;;5086251;28;20238;-77
2024/01/05 03:56:46;;;;;;;33.85;14.05;;;;;;;;;;5080535;28;20044;-77
2024/01/05 03:59:13;;;;;;;28.90;12.07;;;;;;;;;;5070876;28;20487;-76
2024/01/05 04:01:57;;;;;;;25.33;14.43;;;;;;;;;;5087569;28;20047;-76
2024/01/05 04:04:23;;;;;;;23.95;12.68;;;;;;;;;;5083277;28;20051;-76
2024/01/05 04:06:51;;;;;;;24.70;13.05;;;;;;;;;;5069938;28;20517;-76
2024/01/05 04:09:17;;;;;;;26.45;13.52;;;;;;;;;;5087127;28;20046;-84
2024/01/05 04:11:43;;;;;;;26.52;12.95;;;;;;;;;;5072152;28;20059;-82
2024/01/05 04:14:09;;;;;;;30.67;14.85;;;;;;;;;;5076233;28;20032;-82
2024/01/05 04:16:35;;;;;;;31.65;16.45;;;;;;;;;;5070638;28;20123;-83
2024/01/05 04:19:02;;;;;;;33.22;15.27;;;;;;;;;;5085298;28;20066;-81
2024/01/05 04:21:28;;;;;;;29.20;13.85;;;;;;;;;;5061484;28;20043;-82
2024/01/05 04:23:55;;;;;;;32.05;17.23;;;;;;;;;;5055994;28;20123;-82
2024/01/05 04:26:21;;;;;;;31.60;14.73;;;;;;;;;;5061200;28;20040;-83
2024/01/05 04:28:47;;;;;;;31.77;14.57;;;;;;;;;;5087146;28;20217;-83
2024/01/05 04:31:13;;;;;;;27.83;14.07;;;;;;;;;;5076712;28;20116;-83
2024/01/05 04:33:39;;;;;;;38.72;15.65;;;;;;;;;;5068185;28;20036;-83
2024/01/05 04:36:06;;;;;;;31.70;15.90;;;;;;;;;;5074327;28;20545;-83
2024/01/05 04:38:34;;;;;;;37.50;16.65;;;;;;;;;;5058051;28;20032;-83
2024/01/05 04:41:00;;;;;;;31.77;14.70;;;;;;;;;;5069263;28;20048;-82
2024/01/05 04:43:27;;;;;;;32.97;14.55;;;;;;;;;;5065386;28;20048;-80
2024/01/05 04:45:53;;;;;;;36.10;14.93;;;;;;;;;;5063528;28;20040;-82
2024/01/05 04:48:19;;;;;;;35.53;15.25;;;;;;;;;;5067282;28;20491;-84
2024/01/05 04:50:45;;;;;;;38.30;18.67;;;;;;;;;;5065763;28;20571;-83
2024/01/05 04:53:11;;;;;;;32.97;15.02;;;;;;;;;;5065545;28;20044;-82
2024/01/05 04:55:37;;;;;;;31.13;16.35;;;;;;;;;;5066039;28;20047;-83
2024/01/05 04:58:03;;;;;;;35.92;16.48;;;;;;;;;;5075297;28;20071;-81
2024/01/05 05:00:29;;;;;;;37.13;17.42;;;;;;;;;;5080581;28;20106;-82
2024/01/05 05:02:55;;;;;;;39.33;17.83;;;;;;;;;;5078503;28;20126;-82
2024/01/05 05:05:22;;;;;;;36.53;20.75;;;;;;;;;;5054019;28;20051;-80
2024/01/05 05:07:48;;;;;;;43.00;18.42;;;;;;;;;;5075483;28;20035;-83
2024/01/05 05:10:15;;;;;;;53.92;19.63;;;;;;;;;;5067067;28;20058;-81
2024/01/05 05:12:41;;;;;;;40.22;16.88;;;;;;;;;;5068428;28;20065;-83
2024/01/05 05:15:08;;;;;;;39.55;18.73;;;;;;;;;;5062290;28;20032;-83
2024/01/05 05:17:34;;;;;;;44.33;17.00;;;;;;;;;;5079657;28;20044;-84
2024/01/05 05:20:00;;;;;;;38.28;18.20;;;;;;;;;;5068331;28;20050;-78
2024/01/05 05:22:26;;;;;;;39.97;18.17;;;;;;;;;;5078809;28;20489;-77
2024/01/05 05:24:52;;;;;;;38.42;15.95;;;;;;;;;;5082809;28;20036;-76
2024/01/05 05:27:18;;;;;;;47.47;17.33;;;;;;;;;;5052477;28;20044;-76
2024/01/05 05:29:44;;;;;;;40.55;16.40;;;;;;;;;;5048116;28;20480;-77
2024/01/05 05:32:10;;;;;;;38.80;18.20;;;;;;;;;;5066021;28;20044;-77
2024/01/05 05:34:36;;;;;;;45.97;18.13;;;;;;;;;;5081544;28;20032;-78
2024/01/05 05:37:03;;;;;;;42.35;17.77;;;;;;;;;;5088483;28;20028;-75
2024/01/05 05:39:29;;;;;;;48.28;21.30;;;;;;;;;;5084180;28;20131;-79
2024/01/05 05:41:55;;;;;;;45.13;17.33;;;;;;;;;;5052101;28;20032;-79
2024/01/05 05:44:21;;;;;;;49.60;19.05;;;;;;;;;;5063766;28;20119;-77
2024/01/05 05:46:47;;;;;;;39.95;17.38;;;;;;;;;;5078815;28;20090;-77
2024/01/05 05:49:13;;;;;;;41.42;18.98;;;;;;;;;;5069620;28;20060;-77
2024/01/05 05:51:39;;;;;;;42.90;20.23;;;;;;;;;;5061647;28;20045;-77
2024/01/05 05:54:05;;;;;;;42.80;19.42;;;;;;;;;;5068593;28;20068;-76
2024/01/05 05:56:31;;;;;;;44.08;19.95;;;;;;;;;;5054006;28;20044;-77
2024/01/05 05:58:57;;;;;;;42.17;21.27;;;;;;;;;;5066181;28;20044;-78
2024/01/05 06:01:24;;;;;;;37.28;15.77;;;;;;;;;;5086312;28;20055;-77
2024/01/05 06:03:50;;;;;;;48.53;20.05;;;;;;;;;;5065490;28;20431;-78
2024/01/05 06:06:18;;;;;;;47.38;22.83;;;;;;;;;;5084833;28;20487;-77
2024/01/05 06:08:45;;;;;;;42.53;19.48;;;;;;;;;;5067505;28;20039;-77
2024/01/05 06:11:12;;;;;;;46.00;18.40;;;;;;;;;;5075214;28;20043;-77
2024/01/05 06:13:38;;;;;;;41.15;19.00;;;;;;;;;;5069407;28;20036;-77
2024/01/05 06:16:05;;;;;;;44.15;21.48;;;;;;;;;;5065907;28;20083;-77
2024/01/05 06:18:31;;;;;;;40.88;21.63;;;;;;;;;;5083790;28;20128;-77
2024/01/05 06:20:57;;;;;;;43.08;20.60;;;;;;;;;;5083104;28;20040;-76
2024/01/05 06:23:23;;;;;;;35.08;16.50;;;;;;;;;;5065731;28;20124;-76
2024/01/05 06:25:49;;;;;;;39.63;20.50;;;;;;;;;;5076015;28;20039;-76
2024/01/05 06:28:15;;;;;;;42.95;21.67;;;;;;;;;;5080958;28;20033;-76
2024/01/05 06:30:41;;;;;;;40.78;20.58;;;;;;;;;;5084500;28;20037;-84
2024/01/05 06:33:07;;;;;;;44.65;21.02;;;;;;;;;;5064511;28;20483;-82
2024/01/05 06:35:33;;;;;;;39.55;21.50;;;;;;;;;;5067520;28;20036;-81
2024/01/05 06:37:59;;;;;;;42.90;22.75;;;;;;;;;;5071080;28;20545;-84
2024/01/05 06:40:25;;;;;;;45.55;21.42;;;;;;;;;;5082311;28;20094;-85
2024/01/05 06:42:52;;;;;;;34.10;19.95;;;;;;;;;;5081875;28;20031;-86
2024/01/05 06:45:18;;;;;;;38.25;21.42;;;;;;;;;;5071284;28;20055;-86
2024/01/05 06:47:44;;;;;;;41.72;20.48;;;;;;;;;;5071434;28;20081;-86
2024/01/05 06:50:10;;;;;;;37.10;18.73;;;;;;;;;;5085693;28;20040;-85
2024/01/05 06:52:36;;;;;;;32.92;16.55;;;;;;;;;;5066564;28;20039;-86
2024/01/05 06:55:05;;;;;;;32.95;16.80;;;;;;;;;;5071691;28;20040;-84
2024/01/05 06:57:31;;;;;;;33.83;17.48;;;;;;;;;;5088122;28;20555;-80
2024/01/05 06:59:58;;;;;;;33.55;17.35;;;;;;;;;;5068580;28;20047;-85
2024/01/05 07:02:24;;;;;;;36.35;19.98;;;;;;;;;;5066207;28;20034;-84
2024/01/05 07:04:50;;;;;;;32.88;19.38;;;;;;;;;;5085855;28;20506;-84
2024/01/05 07:07:16;;;;;;;30.35;17.02;;;;;;;;;;5083551;28;20454;-84
2024/01/05 07:09:43;;;;;;;30.05;18.95;;;;;;;;;;5076565;28;20036;-83
2024/01/05 07:12:09;;;;;;;28.83;15.15;;;;;;;;;;5064367;28;20127;-85
2024/01/05 07:14:36;;;;;;;26.35;18.30;;;;;;;;;;5063537;28;20032;-86
2024/01/05 07:17:02;;;;;;;29.17;19.00;;;;;;;;;;5067431;28;20039;-85
2024/01/05 07:19:28;;;;;;;24.60;15.27;;;;;;;;;;5074772;28;20032;-84
2024/01/05 07:21:54;;;;;;;21.02;12.85;;;;;;;;;;5069994;28;20043;-85
2024/01/05 07:24:20;;;;;;;24.33;14.57;;;;;;;;;;5064584;28;20128;-85
2024/01/05 07:26:46;;;;;;;25.95;15.93;;;;;;;;;;5062098;28;20048;-84
2024/01/05 07:29:12;;;;;;;23.45;16.77;;;;;;;;;;5074537;28;20040;-85
2024/01/05 07:31:38;;;;;;;23.40;15.73;;;;;;;;;;5083851;28;20119;-83
2024/01/05 07:34:05;;;;;;;25.52;15.70;;;;;;;;;;5061723;28;20078;-84
2024/01/05 07:36:31;;;;;;;27.50;17.98;;;;;;;;;;5065408;28;20040;-85
2024/01/05 07:38:59;;;;;;;23.98;15.30;;;;;;;;;;5074700;28;20040;-90
2024/01/05 07:41:25;;;;;;;22.67;14.38;;;;;;;;;;5086912;28;20035;-81
2024/01/05 07:43:51;;;;;;;25.23;15.05;;;;;;;;;;5084425;28;20422;-81
2024/01/05 07:46:19;;;;;;;24.52;14.75;;;;;;;;;;5067085;28;20063;-83
2024/01/05 07:48:46;;;;;;;31.17;14.88;;;;;;;;;;5089654;28;20082;-82
2024/01/05 07:51:13;;;;;;;27.80;15.65;;;;;;;;;;5066549;28;20502;-82
2024/01/05 07:53:41;;;;;;;27.88;15.40;;;;;;;;;;5069306;28;20451;-82
2024/01/05 07:56:08;;;;;;;28.52;16.13;;;;;;;;;;5068012;28;20047;-82
2024/01/05 07:58:34;;;;;;;28.25;15.93;;;;;;;;;;5065981;28;20043;-80
2024/01/05 08:01:00;;;;;;;30.00;17.45;;;;;;;;;;5059966;28;20074;-81
2024/01/05 08:03:26;;;;;;;31.45;16.98;;;;;;;;;;5082371;28;20047;-83
2024/01/05 08:05:52;;;;;;;37.45;21.23;;;;;;;;;;5078171;28;20045;-81
2024/01/05 08:08:18;;;;;;;36.10;16.95;;;;;;;;;;5083396;28;20075;-80
2024/01/05 08:10:44;;;;;;;35.85;17.63;;;;;;;;;;5074193;28;20530;-80
2024/01/05 08:13:11;;;;;;;32.00;18.15;;;;;;;;;;5088732;28;20040;-81
2024/01/05 08:15:37;;;;;;;38.22;18.25;;;;;;;;;;5066750;28;20487;-80
2024/01/05 08:18:03;;;;;;;35.60;18.95;;;;;;;;;;5067683;28;20090;-80
2024/01/05 08:20:29;;;;;;;41.00;17.40;;;;;;;;;;5069940;28;20035;-79
2024/01/05 08:22:55;;;;;;;34.15;18.40;;;;;;;;;;5071951;28;20558;-81
2024/01/05 08:25:21;;;;;;;36.67;19.98;;;;;;;;;;5069009;28;20044;-81
2024/01/05 08:27:47;;;;;;;40.30;20.92;;;;;;;;;;5063388;28;20101;-82
2024/01/05 08:30:14;;;;;;;34.88;21.08;;;;;;;;;;5081713;28;20177;-81
2024/01/05 08:32:41;;;;;;;34.45;19.48;;;;;;;;;;5069157;28;20040;-81
2024/01/05 08:35:07;;;;;;;36.65;18.58;;;;;;;;;;5091580;28;20045;-80
2024/01/05 08:37:33;;;;;;;37.25;20.10;;;;;;;;;;5070212;28;20113;-80
2024/01/05 08:39:59;;;;;;;34.47;19.42;;;;;;;;;;5090066;28;20048;-81
2024/01/05 08:42:26;;;;;;;37.00;21.00;;;;;;;;;;5072031;28;20032;-82
2024/01/05 08:44:52;;;;;;;35.90;21.20;;;;;;;;;;5068508;28;20044;-82
2024/01/05 08:47:18;;;;;;;32.97;19.00;;;;;;;;;;5055205;28;20040;-80
2024/01/05 08:49:44;;;;;;;37.55;19.05;;;;;;;;;;5085568;28;20052;-82
2024/01/05 08:52:10;;;;;;;32.65;18.67;;;;;;;;;;5072353;28;20082;-87
2024/01/05 08:54:40;;;;;;;37.58;19.58;;;;;;;;;;5073535;28;20040;-87
2024/01/05 08:57:10;;;;;;;33.53;20.15;;;;;;;;;;5071494;28;20074;-87
2024/01/05 08:59:38;;;;;;;31.50;18.65;;;;;;;;;;5075123;28;20040;-87
2024/01/05 09:02:04;;;;;;;30.35;21.85;;;;;;;;;;5079653;28;20575;-80
2024/01/05 09:04:31;;;;;;;35.03;19.85;;;;;;;;;;5072771;28;20508;-78
2024/01/05 09:06:59;;;;;;;35.22;23.00;;;;;;;;;;5067020;28;20067;-78
2024/01/05 09:09:26;;;;;;;35.50;22.50;;;;;;;;;;5063072;28;20036;-79
2024/01/05 09:11:52;;;;;;;31.35;22.17;;;;;;;;;;5073231;28;20486;-80
2024/01/05 09:14:18;;;;;;;34.05;23.58;;;;;;;;;;5066581;28;20054;-79
2024/01/05 09:16:44;;;;;;;36.85;22.95;;;;;;;;;;5071794;28;20142;-78
2024/01/05 09:19:10;;;;;;;39.42;21.73;;;;;;;;;;5062705;28;20031;-78
2024/01/05 09:21:36;;;;;;;39.30;24.58;;;;;;;;;;5079476;28;20404;-79
2024/01/05 09:24:02;;;;;;;37.15;22.42;;;;;;;;;;5088653;28;20105;-78
2024/01/05 09:26:28;;;;;;;45.10;25.05;;;;;;;;;;5080901;28;20044;-79
2024/01/05 09:28:54;;;;;;;43.08;26.88;;;;;;;;;;5067706;28;20036;-78
2024/01/05 09:31:20;;;;;;;40.05;23.58;;;;;;;;;;5065861;28;20041;-78
2024/01/05 09:33:49;;;;;;;41.13;23.73;;;;;;;;;;5088183;28;20040;-78
2024/01/05 09:36:16;;;;;;;42.50;26.17;;;;;;;;;;5068930;28;20040;-78
2024/01/05 09:38:42;;;;;;;40.70;22.48;;;;;;;;;;5067145;28;20131;-78
2024/01/05 09:41:14;;;;;;;42.25;26.10;;;;;;;;;;5067261;28;20040;-78
2024/01/05 09:43:41;;;;;;;44.50;25.38;;;;;;;;;;5050998;28;20040;-78
2024/01/05 09:46:07;;;;;;;45.90;26.13;;;;;;;;;;5086102;28;20056;-78
2024/01/05 09:48:34;;;;;;;55.40;28.70;;;;;;;;;;5066831;28;20039;-77
2024/01/05 09:51:01;;;;;;;54.65;29.77;;;;;;;;;;5085174;28;20036;-78
2024/01/05 09:53:27;;;;;;;51.13;26.95;;;;;;;;;;5079751;28;20388;-79
2024/01/05 09:55:54;;;;;;;51.78;28.85;;;;;;;;;;5075915;28;20093;-79
2024/01/05 09:58:21;;;;;;;55.22;25.88;;;;;;;;;;5062926;28;20064;-79
2024/01/05 10:00:50;;;;;;;55.38;28.15;;;;;;;;;;5075965;28;20036;-79
2024/01/05 10:03:21;;;;;;;51.08;24.70;;;;;;;;;;5072935;28;20385;-79
2024/01/05 10:05:50;;;;;;;60.30;28.00;;;;;;;;;;5082770;28;20040;-79
2024/01/05 10:08:16;;;;;;;57.50;26.70;;;;;;;;;;5078811;28;20040;-78
2024/01/05 10:10:52;;;;;;;60.42;27.25;;;;;;;;;;5082429;28;20361;-77
2024/01/05 10:13:18;;;;;;;53.92;26.92;;;;;;;;;;5069546;28;20043;-77
2024/01/05 10:15:59;;;;;;;52.10;23.77;;;;;;;;;;5083062;28;20075;-79
2024/01/05 10:18:26;;;;;;;52.90;24.95;;;;;;;;;;5060159;28;20040;-79
2024/01/05 10:20:52;;;;;;;54.20;27.48;;;;;;;;;;5084580;28;20085;-79
2024/01/05 10:23:18;;;;;;;47.50;22.88;;;;;;;;;;5067945;28;20044;-79
2024/01/05 10:25:46;;;;;;;47.78;23.80;;;;;;;;;;5086217;28;20083;-79
2024/01/05 10:28:32;;;;;;;44.80;25.17;;;;;;;;;;5069128;28;20483;-79
2024/01/05 10:31:14;;;;;;;47.05;22.75;;;;;;;;;;5056996;28;20040;-78
2024/01/05 10:33:51;;;;;;;44.65;22.55;;;;;;;;;;5068401;28;20471;-78
2024/01/05 10:36:20;;;;;;;49.40;24.35;;;;;;;;;;5055993;28;20127;-79
2024/01/05 10:38:47;;;;;;;45.70;21.38;;;;;;;;;;5089753;28;20094;-79
2024/01/05 10:41:13;;;;;;;51.63;23.17;;;;;;;;;;5061886;28;20040;-79
2024/01/05 10:43:41;;;;;;;46.00;22.25;;;;;;;;;;5069189;28;20041;-77
2024/01/05 10:46:08;;;;;;;51.63;21.58;;;;;;;;;;5066475;28;20385;-79
2024/01/05 10:48:35;;;;;;;51.28;24.45;;;;;;;;;;5062401;28;20044;-78
2024/01/05 10:51:02;;;;;;;48.65;24.10;;;;;;;;;;5082851;28;20123;-78
2024/01/05 10:53:29;;;;;;;52.65;21.30;;;;;;;;;;5059757;28;20047;-79
2024/01/05 10:55:57;;;;;;;54.83;22.98;;;;;;;;;;5073624;28;20504;-78
2024/01/05 10:58:23;;;;;;;45.40;21.48;;;;;;;;;;5081290;28;20472;-78
2024/01/05 11:00:51;;;;;;;48.08;22.92;;;;;;;;;;5067332;28;20043;-78
2024/01/05 11:03:19;;;;;;;44.35;23.38;;;;;;;;;;5070164;28;20044;-79
2024/01/05 11:05:46;;;;;;;45.65;20.65;;;;;;;;;;5086095;28;20044;-78
2024/01/05 11:08:19;;;;;;;42.35;21.88;;;;;;;;;;5077236;28;20044;-78
2024/01/05 11:10:55;;;;;;;41.90;23.33;;;;;;;;;;5073090;28;20075;-76
2024/01/05 11:13:44;;;;;;;42.42;22.55;;;;;;;;;;5068140;28;20040;-77
2024/01/05 11:16:29;;;;;;;49.33;22.30;;;;;;;;;;5075327;28;20063;-77
2024/01/05 11:18:55;;;;;;;46.03;20.63;;;;;;;;;;5081383;28;20150;-76
2024/01/05 11:21:24;;;;;;;44.30;23.30;;;;;;;;;;5061542;28;20098;-77
2024/01/05 11:23:53;;;;;;;40.95;20.23;;;;;;;;;;5079063;28;20043;-77
2024/01/05 11:26:29;;;;;;;46.90;22.17;;;;;;;;;;5063491;28;20054;-77
2024/01/05 11:28:55;;;;;;;43.25;23.40;;;;;;;;;;5070108;28;20128;-76
2024/01/05 11:31:46;;;;;;;44.28;24.10;;;3.90;85.80;;;;;;5084494;28;20396;-76
2024/01/05 11:34:31;;;;;;;38.47;22.58;;;;;;;;;;5082884;28;20044;-77
2024/01/05 11:36:58;;;;;;;43.75;21.60;;;;;;;;;;5083741;28;20032;-76
2024/01/05 11:39:40;;;;;;;47.97;22.73;;;;;;;;;;5088839;28;20039;-77
2024/01/05 11:42:07;;;;;;;37.28;21.42;;;;;;;;;;5073885;28;20073;-77
2024/01/05 11:44:33;;;;;;;33.40;19.17;;;;;;;;;;5082960;28;20043;-76
2024/01/05 11:47:01;;;;;;;36.45;20.27;;;;;;;;;;5072952;28;20123;-76
2024/01/05 11:49:41;;;;;;;34.35;19.90;;;;;;;;;;5070594;28;20056;-76
2024/01/05 11:52:07;;;;;;;33.33;18.73;;;;;;;;;;5074654;28;20047;-77
2024/01/05 11:54:37;;;;;;;35.13;18.63;;;;;;;;;;5061092;28;20032;-76
2024/01/05 11:57:04;;;;;;;33.78;20.05;;;;;;;;;;5080634;28;20476;-76
2024/01/05 11:59:30;;;;;;;36.33;18.60;;;;;;;;;;5063717;28;20041;-76
2024/01/05 12:01:56;;;;;;;42.50;20.13;;;;;;;;;;5068707;28;20040;-78
2024/01/05 12:04:22;;;;;;;37.28;20.05;;;;;;;;;;5064744;28;20503;-76
2024/01/05 12:06:55;;;;;;;42.78;19.55;;;;;;;;;;5090377;28;20044;-76
2024/01/05 12:09:21;;;;;;;33.05;18.80;;;;;;;;;;5088244;28;20041;-77
2024/01/05 12:11:48;;;;;;;38.20;19.73;;;;;;;;;;5077512;28;20120;-77
2024/01/05 12:14:26;;;;;;;38.40;19.50;;;;;;;;;;5074368;28;20051;-77
2024/01/05 12:16:53;;;;;;;42.78;19.95;;;;;;;;;;5076025;28;20574;-77
2024/01/05 12:19:22;;;;;;;42.80;20.08;;;;;;;;;;5065647;28;20121;-77
2024/01/05 12:21:52;;;;;;;36.67;17.33;;;;;;;;;;5076685;28;20040;-76
2024/01/05 12:24:18;;;;;;;37.42;18.20;;;;;;;;;;5088915;28;20040;-77
2024/01/05 12:26:45;;;;;;;34.65;17.58;;;;;;;;;;5059870;28;20096;-76
2024/01/05 12:29:11;;;;;;;32.33;17.00;;;;;;;;;;5086711;28;20495;-77
2024/01/05 12:31:39;;;;;;;34.80;17.15;;;;;;;;;;5086483;28;20084;-78
2024/01/05 12:34:06;;;;;;;33.42;17.48;;;;;;;;;;5073955;28;20096;-78
2024/01/05 12:36:32;;;;;;;32.58;18.50;;;;;;;;;;5071756;28;20063;-77
2024/01/05 12:39:10;;;;;;;34.88;17.25;;;;;;;;;;5071787;28;20040;-77
2024/01/05 12:41:39;;;;;;;34.38;18.02;;;;;;;;;;5071560;28;20036;-78
2024/01/05 12:44:10;;;;;;;32.35;15.70;;;;;;;;;;5089123;28;20040;-82
2024/01/05 12:46:43;;;;;;;30.42;15.80;;;;;;;;;;5065853;28;20047;-81
2024/01/05 12:49:19;;;;;;;38.10;16.33;;;;;;;;;;5057770;28;20119;-81
2024/01/05 12:51:48;;;;;;;27.75;15.50;;;;;;;;;;5079119;28;20063;-82
2024/01/05 12:54:15;;;;;;;30.88;15.55;;;;;;;;;;5092487;28;20403;-81
2024/01/05 12:56:54;;;;;;;30.15;15.20;;;;;;;;;;5094184;28;20036;-81
2024/01/05 12:59:24;;;;;;;31.10;16.88;;;;;;;;;;5074631;28;20072;-80
2024/01/05 13:02:00;;;;;;;30.15;15.80;;;;;;;;;;5070219;28;20593;-81
2024/01/05 13:04:34;;;;;;;35.70;16.63;;;;;;;;;;5076747;28;20067;-81
2024/01/05 13:07:00;;;;;;;30.25;16.13;;;;;;;;;;5090487;28;20488;-80
2024/01/05 13:09:26;;;;;;;30.45;16.02;;;;;;;;;;5078091;28;20044;-80
2024/01/05 13:11:53;;;;;;;35.03;17.27;;;;;;;;;;5078813;28;20463;-81
2024/01/05 13:14:19;;;;;;;38.63;16.45;;;;;;;;;;5087708;28;20122;-82
2024/01/05 13:16:46;;;;;;;33.13;15.73;;;;;;;;;;5071228;28;20068;-81
2024/01/05 13:19:12;;;;;;;36.80;18.42;;;;;;;;;;5088202;28;20127;-81
2024/01/05 13:21:38;;;;;;;34.88;17.10;;;;;;;;;;5073713;28;20046;-81
2024/01/05 13:24:05;;;;;;;28.73;15.70;;;;;;;;;;5085081;28;20491;-83
2024/01/05 13:26:31;;;;;;;29.02;15.25;;;;;;;;;;5075226;28;20039;-80
2024/01/05 13:28:57;;;;;;;24.08;14.32;;;;;;;;;;5075174;28;20036;-80
2024/01/05 13:31:23;;;;;;;31.83;14.30;;;;;;;;;;5095357;28;20032;-79
2024/01/05 13:33:49;;;;;;;30.55;14.70;;;;;;;;;;5082459;28;20067;-84
2024/01/05 13:36:15;;;;;;;29.80;14.95;;;;;;;;;;5071635;28;20047;-80
2024/01/05 13:38:42;;;;;;;27.15;13.90;;;;;;;;;;5076166;28;20039;-79
2024/01/05 13:41:08;;;;;;;24.70;14.13;;;;;;;;;;5072105;28;20040;-81
2024/01/05 13:43:35;;;;;;;26.63;15.57;;;;;;;;;;5089040;28;20032;-81
2024/01/05 13:46:03;;;;;;;25.13;12.85;;;;;;;;;;5070526;28;20044;-82
2024/01/05 13:48:29;;;;;;;24.15;13.65;;;;;;;;;;5067734;28;20056;-81
2024/01/05 13:50:55;;;;;;;24.48;13.65;;;;;;;;;;5088300;28;20052;-82
2024/01/05 13:53:21;;;;;;;25.02;13.88;;;;;;;;;;5087040;28;20731;-81
2024/01/05 13:55:47;;;;;;;24.67;13.40;;;;;;;;;;5069890;28;20036;-81
2024/01/05 13:58:14;;;;;;;25.48;12.88;;;;;;;;;;5071072;28;20079;-81
2024/01/05 14:00:40;;;;;;;24.85;12.50;;;;;;;;;;5069752;28;20048;-82
2024/01/05 14:03:06;;;;;;;25.48;13.65;;;;;;;;;;5066967;28;20043;-81
2024/01/05 14:05:32;;;;;;;24.90;13.40;;;;;;;;;;5084621;28;20407;-82
2024/01/05 14:07:59;;;;;;;26.20;13.55;;;;;;;;;;5062405;28;20040;-82
2024/01/05 14:10:25;;;;;;;24.58;12.80;;;;;;;;;;5076322;28;20158;-81
2024/01/05 14:12:51;;;;;;;26.38;13.95;;;;;;;;;;5092211;28;20488;-82
2024/01/05 14:15:18;;;;;;;24.65;12.68;;;;;;;;;;5074302;28;20047;-82
2024/01/05 14:17:45;;;;;;;24.42;13.27;;;;;;;;;;5070559;28;20040;-82
2024/01/05 14:20:11;;;;;;;24.40;12.88;;;;;;;;;;5085181;28;20044;-82